Terminal Aerodrome Forecast
Issued by NWS

Home | Current Version | Previous Version | Text Only | Print | Product List | Glossary On
Versions: 1 2 3 4 5 6 7 8 9 10 11 12 13 14 15 16 17 18 19 20 21 22 23 24 25 26 27 28 29 30 31 32 33 34 35 36 37 38 39 40
578
FTUS41 KBOX 212127 AAD
TAFACK
TAF AMD
KACK 212127Z 2121/2218 02034G48KT 3SM -RA BR OVC008
      TEMPO 2122/2202 2SM +RA BR OVC006
     FM220800 03032G43KT 3SM -SHRA BR OVC008
     FM221000 03029G40KT 3SM -SHRA BR OVC010
     FM221700 03027G37KT 1SM -SHRA BR OVC010=

USA.gov is the U.S. government's official web portal to all federal, state and local government web resources and services.